Aviation Digital Data Service (ADDS)

Output produced by METARs form (1523 UTC 23 January 2019)
found at http://www.aviationweather.gov/metar/data/
 
METAR text: RJCW 230910Z 11018KT 7000 -SHSN FEW010 SCT020 BKN030 M03/M06 Q1000 RMK 1ST010 4CU020 6CU030 A2955
Conditions at: RJCW (WAKKANAI AIRPORT, JP) observed 0910 UTC 23 January 2019
Temperature: -3.0°C (27°F)
Dewpoint: -6.0°C (21°F) [RH = 80%]
Pressure (altimeter): 29.53 inches Hg (1000.0 mb)
Winds: from the ESE (110 degrees) at 21 MPH (18 knots; 9.3 m/s)
Visibility: 4 miles ( 7 km)
Ceiling: 3000 feet AGL
Clouds: few clouds at 1000 feet AGL
scattered clouds at 2000 feet AGL
broken clouds at 3000 feet AGL
Weather: -SHSN  (light snow showers)

METAR text: RJCW 230900Z 12019KT 5000 BLSN -SHSN FEW010 SCT020 BKN030 M03/M06 Q1000
Conditions at: RJCW (WAKKANAI AIRPORT, JP) observed 0900 UTC 23 January 2019
Temperature: -3.0°C (27°F)
Dewpoint: -6.0°C (21°F) [RH = 80%]
Pressure (altimeter): 29.53 inches Hg (1000.0 mb)
Winds: from the ESE (120 degrees) at 22 MPH (19 knots; 9.8 m/s)
Visibility: 3 miles ( 5 km)
Ceiling: 3000 feet AGL
Clouds: few clouds at 1000 feet AGL
scattered clouds at 2000 feet AGL
broken clouds at 3000 feet AGL
Weather: BLSN -SHSN  (blowing snow, light snow showers)

METAR text: RJCW 230826Z 11023KT 4000 BLSN -SHSN FEW010 SCT020 BKN030 M03/M06 Q1001 RMK 1ST010 3CU020 7CU030 A2956
Conditions at: RJCW (WAKKANAI AIRPORT, JP) observed 0826 UTC 23 January 2019
Temperature: -3.0°C (27°F)
Dewpoint: -6.0°C (21°F) [RH = 80%]
Pressure (altimeter): 29.56 inches Hg (1001.0 mb)
Winds: from the ESE (110 degrees) at 26 MPH (23 knots; 11.8 m/s)
Visibility: 2.49 miles (4.01 km)
Ceiling: 3000 feet AGL
Clouds: few clouds at 1000 feet AGL
scattered clouds at 2000 feet AGL
broken clouds at 3000 feet AGL
Weather: BLSN -SHSN  (blowing snow, light snow showers)

METAR text: RJCW 230812Z 11021KT 3000 BLSN -SHSN FEW010 SCT020 BKN030 M03/M05 Q1000 RMK 1ST010 3CU020 7CU030 A2956
Conditions at: RJCW (WAKKANAI AIRPORT, JP) observed 0812 UTC 23 January 2019
Temperature: -3.0°C (27°F)
Dewpoint: -5.0°C (23°F) [RH = 86%]
Pressure (altimeter): 29.53 inches Hg (1000.0 mb)
Winds: from the ESE (110 degrees) at 24 MPH (21 knots; 10.8 m/s)
Visibility: 1.86 miles (2.99 km)
Ceiling: 3000 feet AGL
Clouds: few clouds at 1000 feet AGL
scattered clouds at 2000 feet AGL
broken clouds at 3000 feet AGL
Weather: BLSN -SHSN  (blowing snow, light snow showers)

METAR text: RJCW 230800Z 11020KT 2000 BLSN -SHSN FEW010 SCT020 BKN030 M03/M05 Q1001
Conditions at: RJCW (WAKKANAI AIRPORT, JP) observed 0800 UTC 23 January 2019
Temperature: -3.0°C (27°F)
Dewpoint: -5.0°C (23°F) [RH = 86%]
Pressure (altimeter): 29.56 inches Hg (1001.0 mb)
Winds: from the ESE (110 degrees) at 23 MPH (20 knots; 10.3 m/s)
Visibility: 1.24 miles (2.00 km)
Ceiling: 3000 feet AGL
Clouds: few clouds at 1000 feet AGL
scattered clouds at 2000 feet AGL
broken clouds at 3000 feet AGL
Weather: BLSN -SHSN  (blowing snow, light snow showers)

METAR text: RJCW 230700Z 10012KT 2000 R08/1600VP2000D -SHSN FEW010 SCT020 BKN030 M03/M05 Q1002
Conditions at: RJCW (WAKKANAI AIRPORT, JP) observed 0700 UTC 23 January 2019
Temperature: -3.0°C (27°F)
Dewpoint: -5.0°C (23°F) [RH = 86%]
Pressure (altimeter): 29.59 inches Hg (1002.0 mb)
Winds: from the E (100 degrees) at 14 MPH (12 knots; 6.2 m/s)
Visibility: 1.24 miles (2.00 km)
Ceiling: 3000 feet AGL
Clouds: few clouds at 1000 feet AGL
scattered clouds at 2000 feet AGL
broken clouds at 3000 feet AGL
Weather: -SHSN  (light snow showers)

METAR text: RJCW 230643Z 11011KT 3000 -SHSN FEW010 SCT020 BKN040 M02/M05 Q1002 RMK 1ST010 3CU020 6CU040 A2961
Conditions at: RJCW (WAKKANAI AIRPORT, JP) observed 0643 UTC 23 January 2019
Temperature: -2.0°C (28°F)
Dewpoint: -5.0°C (23°F) [RH = 80%]
Pressure (altimeter): 29.59 inches Hg (1002.0 mb)
Winds: from the ESE (110 degrees) at 13 MPH (11 knots; 5.7 m/s)
Visibility: 1.86 miles (2.99 km)
Ceiling: 4000 feet AGL
Clouds: few clouds at 1000 feet AGL
scattered clouds at 2000 feet AGL
broken clouds at 4000 feet AGL
Weather: -SHSN  (light snow showers)

METAR text: RJCW 230616Z 10010KT 4900 -SHSN FEW010 SCT020 BKN040 M02/M05 Q1003 RMK 1ST010 3CU020 6CU040 A2962 9999E
Conditions at: RJCW (WAKKANAI AIRPORT, JP) observed 0616 UTC 23 January 2019
Temperature: -2.0°C (28°F)
Dewpoint: -5.0°C (23°F) [RH = 80%]
Pressure (altimeter): 29.62 inches Hg (1003.0 mb)
Winds: from the E (100 degrees) at 12 MPH (10 knots; 5.1 m/s)
Visibility: 3 miles ( 5 km)
Ceiling: 4000 feet AGL
Clouds: few clouds at 1000 feet AGL
scattered clouds at 2000 feet AGL
broken clouds at 4000 feet AGL
Weather: -SHSN  (light snow showers)

METAR text: RJCW 230600Z 10010KT 9999 -SHSN FEW010 SCT030 BKN050 M02/M06 Q1003
Conditions at: RJCW (WAKKANAI AIRPORT, JP) observed 0600 UTC 23 January 2019
Temperature: -2.0°C (28°F)
Dewpoint: -6.0°C (21°F) [RH = 74%]
Pressure (altimeter): 29.62 inches Hg (1003.0 mb)
Winds: from the E (100 degrees) at 12 MPH (10 knots; 5.1 m/s)
Visibility: 6 or more miles (10+ km)
Ceiling: 5000 feet AGL
Clouds: few clouds at 1000 feet AGL
scattered clouds at 3000 feet AGL
broken clouds at 5000 feet AGL
Weather: -SHSN  (light snow showers)

METAR text: RJCW 230500Z 08008KT 9999 FEW010 SCT030 BKN060 M02/M04 Q1003
Conditions at: RJCW (WAKKANAI AIRPORT, JP) observed 0500 UTC 23 January 2019
Temperature: -2.0°C (28°F)
Dewpoint: -4.0°C (25°F) [RH = 86%]
Pressure (altimeter): 29.62 inches Hg (1003.0 mb)
Winds: from the E (80 degrees) at 9 MPH (8 knots; 4.1 m/s)
Visibility: 6 or more miles (10+ km)
Ceiling: 6000 feet AGL
Clouds: few clouds at 1000 feet AGL
scattered clouds at 3000 feet AGL
broken clouds at 6000 feet AGL
Weather: no significant weather observed at this time

METAR text: RJCW 230400Z 14007KT 8000 -SHSN FEW010 SCT030 BKN050 M02/M04 Q1004
Conditions at: RJCW (WAKKANAI AIRPORT, JP) observed 0400 UTC 23 January 2019
Temperature: -2.0°C (28°F)
Dewpoint: -4.0°C (25°F) [RH = 86%]
Pressure (altimeter): 29.65 inches Hg (1004.0 mb)
Winds: from the SE (140 degrees) at 8 MPH (7 knots; 3.6 m/s)
Visibility: 5 miles ( 8 km)
Ceiling: 5000 feet AGL
Clouds: few clouds at 1000 feet AGL
scattered clouds at 3000 feet AGL
broken clouds at 5000 feet AGL
Weather: -SHSN  (light snow showers)

METAR text: RJCW 230336Z 15008KT 5000 R08/2000N -SHSN FEW005 SCT030 BKN050 M02/M03 Q1004 RMK 1ST005 4CU030 6CU050 A2967 9999W
Conditions at: RJCW (WAKKANAI AIRPORT, JP) observed 0336 UTC 23 January 2019
Temperature: -2.0°C (28°F)
Dewpoint: -3.0°C (27°F) [RH = 93%]
Pressure (altimeter): 29.65 inches Hg (1004.0 mb)
Winds: from the SSE (150 degrees) at 9 MPH (8 knots; 4.1 m/s)
Visibility: 3 miles ( 5 km)
Ceiling: 5000 feet AGL
Clouds: few clouds at 500 feet AGL
scattered clouds at 3000 feet AGL
broken clouds at 5000 feet AGL
Weather: -SHSN  (light snow showers)

METAR text: RJCW 230331Z 15008KT 3200 R08/1200VP2000U -SHSN FEW005 SCT020 BKN030 M02/M03 Q1005 RMK 1ST005 3CU020 6CU030 A2968
Conditions at: RJCW (WAKKANAI AIRPORT, JP) observed 0331 UTC 23 January 2019
Temperature: -2.0°C (28°F)
Dewpoint: -3.0°C (27°F) [RH = 93%]
Pressure (altimeter): 29.68 inches Hg (1005.0 mb)
Winds: from the SSE (150 degrees) at 9 MPH (8 knots; 4.1 m/s)
Visibility: 1.99 miles (3.20 km)
Ceiling: 3000 feet AGL
Clouds: few clouds at 500 feet AGL
scattered clouds at 2000 feet AGL
broken clouds at 3000 feet AGL
Weather: -SHSN  (light snow showers)

METAR text: RJCW 230327Z 15009KT 2400 R08/1200VP2000D -SHSN FEW005 SCT020 BKN030 M02/M03 Q1005 RMK 1ST005 3CU020 6CU030 A2968
Conditions at: RJCW (WAKKANAI AIRPORT, JP) observed 0327 UTC 23 January 2019
Temperature: -2.0°C (28°F)
Dewpoint: -3.0°C (27°F) [RH = 93%]
Pressure (altimeter): 29.68 inches Hg (1005.0 mb)
Winds: from the SSE (150 degrees) at 10 MPH (9 knots; 4.6 m/s)
Visibility: 1.49 miles (2.40 km)
Ceiling: 3000 feet AGL
Clouds: few clouds at 500 feet AGL
scattered clouds at 2000 feet AGL
broken clouds at 3000 feet AGL
Weather: -SHSN  (light snow showers)

METAR text: RJCW 230314Z 15008KT 2300 R08/1900D -SHSN FEW005 SCT020 BKN030 M03/M04 Q1005 RMK 1ST005 3CU020 6CU030 A2969
Conditions at: RJCW (WAKKANAI AIRPORT, JP) observed 0314 UTC 23 January 2019
Temperature: -3.0°C (27°F)
Dewpoint: -4.0°C (25°F) [RH = 93%]
Pressure (altimeter): 29.68 inches Hg (1005.0 mb)
Winds: from the SSE (150 degrees) at 9 MPH (8 knots; 4.1 m/s)
Visibility: 1.43 miles (2.30 km)
Ceiling: 3000 feet AGL
Clouds: few clouds at 500 feet AGL
scattered clouds at 2000 feet AGL
broken clouds at 3000 feet AGL
Weather: -SHSN  (light snow showers)

METAR text: RJCW 230300Z 15008KT 3000 R08/1300VP2000N -SHSN FEW005 SCT020 BKN040 M03/M04 Q1005
Conditions at: RJCW (WAKKANAI AIRPORT, JP) observed 0300 UTC 23 January 2019
Temperature: -3.0°C (27°F)
Dewpoint: -4.0°C (25°F) [RH = 93%]
Pressure (altimeter): 29.68 inches Hg (1005.0 mb)
Winds: from the SSE (150 degrees) at 9 MPH (8 knots; 4.1 m/s)
Visibility: 1.86 miles (2.99 km)
Ceiling: 4000 feet AGL
Clouds: few clouds at 500 feet AGL
scattered clouds at 2000 feet AGL
broken clouds at 4000 feet AGL
Weather: -SHSN  (light snow showers)

METAR text: RJCW 230226Z 15009KT 1600 R08/0800VP2000U -SHSN FEW005 SCT015 BKN040 M03/M04 Q1006 RMK 1ST005 3ST015 6CU040 A2971
Conditions at: RJCW (WAKKANAI AIRPORT, JP) observed 0226 UTC 23 January 2019
Temperature: -3.0°C (27°F)
Dewpoint: -4.0°C (25°F) [RH = 93%]
Pressure (altimeter): 29.70 inches Hg (1006.0 mb)
Winds: from the SSE (150 degrees) at 10 MPH (9 knots; 4.6 m/s)
Visibility: 0.99 miles (1.59 km)
Ceiling: 4000 feet AGL
Clouds: few clouds at 500 feet AGL
scattered clouds at 1500 feet AGL
broken clouds at 4000 feet AGL
Weather: -SHSN  (light snow showers)

METAR text: RJCW 230223Z 15009KT 1200 R08/0800VP2000U -SHSN FEW005 SCT020 BKN040 M03/M04 Q1006 RMK 1ST005 4CU020 6CU040 A2971
Conditions at: RJCW (WAKKANAI AIRPORT, JP) observed 0223 UTC 23 January 2019
Temperature: -3.0°C (27°F)
Dewpoint: -4.0°C (25°F) [RH = 93%]
Pressure (altimeter): 29.70 inches Hg (1006.0 mb)
Winds: from the SSE (150 degrees) at 10 MPH (9 knots; 4.6 m/s)
Visibility: 0.75 miles (1.21 km)
Ceiling: 4000 feet AGL
Clouds: few clouds at 500 feet AGL
scattered clouds at 2000 feet AGL
broken clouds at 4000 feet AGL
Weather: -SHSN  (light snow showers)

METAR text: RJCW 230220Z 15010KT 1000 R08/0800VP2000D -SHSN FEW005 SCT020 BKN040 M03/M04 Q1006 RMK 1ST005 4CU020 6CU040 A2971
Conditions at: RJCW (WAKKANAI AIRPORT, JP) observed 0220 UTC 23 January 2019
Temperature: -3.0°C (27°F)
Dewpoint: -4.0°C (25°F) [RH = 93%]
Pressure (altimeter): 29.70 inches Hg (1006.0 mb)
Winds: from the SSE (150 degrees) at 12 MPH (10 knots; 5.1 m/s)
Visibility: 0.62 miles (1.00 km)
Ceiling: 4000 feet AGL
Clouds: few clouds at 500 feet AGL
scattered clouds at 2000 feet AGL
broken clouds at 4000 feet AGL
Weather: -SHSN  (light snow showers)

METAR text: RJCW 230217Z 15011KT 0900 R08/0800VP2000D SHSN FEW005 SCT020 BKN040 M03/M04 Q1006 RMK 1ST005 4CU020 6CU040 A2972
Conditions at: RJCW (WAKKANAI AIRPORT, JP) observed 0217 UTC 23 January 2019
Temperature: -3.0°C (27°F)
Dewpoint: -4.0°C (25°F) [RH = 93%]
Pressure (altimeter): 29.70 inches Hg (1006.0 mb)
Winds: from the SSE (150 degrees) at 13 MPH (11 knots; 5.7 m/s)
Visibility: 0.56 miles (0.90 km)
Ceiling: 4000 feet AGL
Clouds: few clouds at 500 feet AGL
scattered clouds at 2000 feet AGL
broken clouds at 4000 feet AGL
Weather: SHSN  (snow showers)

METAR text: RJCW 230214Z 15011KT 1400 R08/1600VP2000N -SHSN FEW005 SCT020 BKN040 M03/M04 Q1006 RMK 1ST005 4CU020 6CU040 A2972
Conditions at: RJCW (WAKKANAI AIRPORT, JP) observed 0214 UTC 23 January 2019
Temperature: -3.0°C (27°F)
Dewpoint: -4.0°C (25°F) [RH = 93%]
Pressure (altimeter): 29.70 inches Hg (1006.0 mb)
Winds: from the SSE (150 degrees) at 13 MPH (11 knots; 5.7 m/s)
Visibility: 0.87 miles (1.40 km)
Ceiling: 4000 feet AGL
Clouds: few clouds at 500 feet AGL
scattered clouds at 2000 feet AGL
broken clouds at 4000 feet AGL
Weather: -SHSN  (light snow showers)

METAR text: RJCW 230200Z 15011KT 2000 R08/2000N -SHSN FEW005 SCT020 BKN040 M03/M04 Q1006
Conditions at: RJCW (WAKKANAI AIRPORT, JP) observed 0200 UTC 23 January 2019
Temperature: -3.0°C (27°F)
Dewpoint: -4.0°C (25°F) [RH = 93%]
Pressure (altimeter): 29.70 inches Hg (1006.0 mb)
Winds: from the SSE (150 degrees) at 13 MPH (11 knots; 5.7 m/s)
Visibility: 1.24 miles (2.00 km)
Ceiling: 4000 feet AGL
Clouds: few clouds at 500 feet AGL
scattered clouds at 2000 feet AGL
broken clouds at 4000 feet AGL
Weather: -SHSN  (light snow showers)

METAR text: RJCW 230100Z 15008KT 3000 R08/2000N -SHSN FEW010 SCT030 BKN050 M03/M04 Q1006
Conditions at: RJCW (WAKKANAI AIRPORT, JP) observed 0100 UTC 23 January 2019
Temperature: -3.0°C (27°F)
Dewpoint: -4.0°C (25°F) [RH = 93%]
Pressure (altimeter): 29.70 inches Hg (1006.0 mb)
Winds: from the SSE (150 degrees) at 9 MPH (8 knots; 4.1 m/s)
Visibility: 1.86 miles (2.99 km)
Ceiling: 5000 feet AGL
Clouds: few clouds at 1000 feet AGL
scattered clouds at 3000 feet AGL
broken clouds at 5000 feet AGL
Weather: -SHSN  (light snow showers)

METAR text: RJCW 230037Z 15010KT 4900 -SHSN FEW010 SCT030 BKN050 M04/M05 Q1007 RMK 2ST010 3CU030 6CU050 A2974
Conditions at: RJCW (WAKKANAI AIRPORT, JP) observed 0037 UTC 23 January 2019
Temperature: -4.0°C (25°F)
Dewpoint: -5.0°C (23°F) [RH = 93%]
Pressure (altimeter): 29.73 inches Hg (1007.0 mb)
Winds: from the SSE (150 degrees) at 12 MPH (10 knots; 5.1 m/s)
Visibility: 3 miles ( 5 km)
Ceiling: 5000 feet AGL
Clouds: few clouds at 1000 feet AGL
scattered clouds at 3000 feet AGL
broken clouds at 5000 feet AGL
Weather: -SHSN  (light snow showers)

METAR text: RJCW 230000Z 15011KT 9999 -SHSN FEW010 SCT030 BKN050 M04/M05 Q1007
Conditions at: RJCW (WAKKANAI AIRPORT, JP) observed 0000 UTC 23 January 2019
Temperature: -4.0°C (25°F)
Dewpoint: -5.0°C (23°F) [RH = 93%]
Pressure (altimeter): 29.73 inches Hg (1007.0 mb)
Winds: from the SSE (150 degrees) at 13 MPH (11 knots; 5.7 m/s)
Visibility: 6 or more miles (10+ km)
Ceiling: 5000 feet AGL
Clouds: few clouds at 1000 feet AGL
scattered clouds at 3000 feet AGL
broken clouds at 5000 feet AGL
Weather: -SHSN  (light snow showers)

METAR text: RJCW 222330Z 14008KT 9999 -SHSN FEW010 SCT030 BKN050 M05/M06 Q1007
Conditions at: RJCW (WAKKANAI AIRPORT, JP) observed 2330 UTC 22 January 2019
Temperature: -5.0°C (23°F)
Dewpoint: -6.0°C (21°F) [RH = 93%]
Pressure (altimeter): 29.73 inches Hg (1007.0 mb)
Winds: from the SE (140 degrees) at 9 MPH (8 knots; 4.1 m/s)
Visibility: 6 or more miles (10+ km)
Ceiling: 5000 feet AGL
Clouds: few clouds at 1000 feet AGL
scattered clouds at 3000 feet AGL
broken clouds at 5000 feet AGL
Weather: -SHSN  (light snow showers)

METAR text: RJCW 220900Z 19006KT 9999 -SHSN FEW015 BKN035 M06/M07 Q1008
Conditions at: RJCW (WAKKANAI AIRPORT, JP) observed 0900 UTC 22 January 2019
Temperature: -6.0°C (21°F)
Dewpoint: -7.0°C (19°F) [RH = 93%]
Pressure (altimeter): 29.76 inches Hg (1008.0 mb)
Winds: from the S (190 degrees) at 7 MPH (6 knots; 3.1 m/s)
Visibility: 6 or more miles (10+ km)
Ceiling: 3500 feet AGL
Clouds: few clouds at 1500 feet AGL
broken clouds at 3500 feet AGL
Weather: -SHSN  (light snow showers)

METAR text: RJCW 220800Z 24005KT 6000 -SHSN FEW010 BKN015 BKN040 M05/M07 Q1007
Conditions at: RJCW (WAKKANAI AIRPORT, JP) observed 0800 UTC 22 January 2019
Temperature: -5.0°C (23°F)
Dewpoint: -7.0°C (19°F) [RH = 86%]
Pressure (altimeter): 29.73 inches Hg (1007.0 mb)
Winds: from the WSW (240 degrees) at 6 MPH (5 knots; 2.6 m/s)
Visibility: 4 miles ( 6 km)
Ceiling: 1500 feet AGL
Clouds: few clouds at 1000 feet AGL
broken clouds at 1500 feet AGL
broken clouds at 4000 feet AGL
Weather: -SHSN  (light snow showers)

METAR text: RJCW 220741Z 30009KT 2300 R08/1600VP2000N -SHSN FEW008 SCT010 BKN015 M05/M07 Q1007 RMK 1ST008 3ST010 5ST015 A2974
Conditions at: RJCW (WAKKANAI AIRPORT, JP) observed 0741 UTC 22 January 2019
Temperature: -5.0°C (23°F)
Dewpoint: -7.0°C (19°F) [RH = 86%]
Pressure (altimeter): 29.73 inches Hg (1007.0 mb)
Winds: from the WNW (300 degrees) at 10 MPH (9 knots; 4.6 m/s)
Visibility: 1.43 miles (2.30 km)
Ceiling: 1500 feet AGL
Clouds: few clouds at 800 feet AGL
scattered clouds at 1000 feet AGL
broken clouds at 1500 feet AGL
Weather: -SHSN  (light snow showers)

METAR text: RJCW 220738Z 30009KT 3100 -SHSN FEW010 SCT015 BKN020 M05/M07 Q1007 RMK 2ST010 4ST015 6CU020 A2974
Conditions at: RJCW (WAKKANAI AIRPORT, JP) observed 0738 UTC 22 January 2019
Temperature: -5.0°C (23°F)
Dewpoint: -7.0°C (19°F) [RH = 86%]
Pressure (altimeter): 29.73 inches Hg (1007.0 mb)
Winds: from the WNW (300 degrees) at 10 MPH (9 knots; 4.6 m/s)
Visibility: 1.93 miles (3.11 km)
Ceiling: 2000 feet AGL
Clouds: few clouds at 1000 feet AGL
scattered clouds at 1500 feet AGL
broken clouds at 2000 feet AGL
Weather: -SHSN  (light snow showers)

METAR text: RJCW 220716Z 31006KT 4900 R08/2000N -SHSN FEW010 BKN015 BKN040 M05/M07 Q1006 RMK 1ST010 5ST015 7CU040 A2973
Conditions at: RJCW (WAKKANAI AIRPORT, JP) observed 0716 UTC 22 January 2019
Temperature: -5.0°C (23°F)
Dewpoint: -7.0°C (19°F) [RH = 86%]
Pressure (altimeter): 29.70 inches Hg (1006.0 mb)
Winds: from the NW (310 degrees) at 7 MPH (6 knots; 3.1 m/s)
Visibility: 3 miles ( 5 km)
Ceiling: 1500 feet AGL
Clouds: few clouds at 1000 feet AGL
broken clouds at 1500 feet AGL
broken clouds at 4000 feet AGL
Weather: -SHSN  (light snow showers)

METAR text: RJCW 220700Z 33004KT 290V020 6000 -SHSN FEW010 BKN015 BKN040 M05/M07 Q1006
Conditions at: RJCW (WAKKANAI AIRPORT, JP) observed 0700 UTC 22 January 2019
Temperature: -5.0°C (23°F)
Dewpoint: -7.0°C (19°F) [RH = 86%]
Pressure (altimeter): 29.70 inches Hg (1006.0 mb)
Winds: from the NNW (330 degrees) at 5 MPH (4 knots; 2.1 m/s)
Visibility: 4 miles ( 6 km)
Ceiling: 1500 feet AGL
Clouds: few clouds at 1000 feet AGL
broken clouds at 1500 feet AGL
broken clouds at 4000 feet AGL
Weather: -SHSN  (light snow showers)

METAR text: RJCW 220644Z 30005KT 260V340 2400 R08/1100VP2000U -SHSN FEW008 SCT020 BKN040 M05/M07 Q1006 RMK 1ST008 3CU020 7CU040 A2973 9999W
Conditions at: RJCW (WAKKANAI AIRPORT, JP) observed 0644 UTC 22 January 2019
Temperature: -5.0°C (23°F)
Dewpoint: -7.0°C (19°F) [RH = 86%]
Pressure (altimeter): 29.70 inches Hg (1006.0 mb)
Winds: from the WNW (300 degrees) at 6 MPH (5 knots; 2.6 m/s)
Visibility: 1.49 miles (2.40 km)
Ceiling: 4000 feet AGL
Clouds: few clouds at 800 feet AGL
scattered clouds at 2000 feet AGL
broken clouds at 4000 feet AGL
Weather: -SHSN  (light snow showers)

METAR text: RJCW 220638Z 31007KT 2300 R08/0900VP2000U -SHSN FEW008 SCT015 BKN040 M05/M07 Q1006 RMK 2ST008 4ST015 7CU040 A2972
Conditions at: RJCW (WAKKANAI AIRPORT, JP) observed 0638 UTC 22 January 2019
Temperature: -5.0°C (23°F)
Dewpoint: -7.0°C (19°F) [RH = 86%]
Pressure (altimeter): 29.70 inches Hg (1006.0 mb)
Winds: from the NW (310 degrees) at 8 MPH (7 knots; 3.6 m/s)
Visibility: 1.43 miles (2.30 km)
Ceiling: 4000 feet AGL
Clouds: few clouds at 800 feet AGL
scattered clouds at 1500 feet AGL
broken clouds at 4000 feet AGL
Weather: -SHSN  (light snow showers)

METAR text: RJCW 220628Z 30009KT 3100 R08/0900VP2000D -SHSN FEW008 SCT015 BKN040 M05/M07 Q1006 RMK 1ST008 3ST015 6CU040 A2972
Conditions at: RJCW (WAKKANAI AIRPORT, JP) observed 0628 UTC 22 January 2019
Temperature: -5.0°C (23°F)
Dewpoint: -7.0°C (19°F) [RH = 86%]
Pressure (altimeter): 29.70 inches Hg (1006.0 mb)
Winds: from the WNW (300 degrees) at 10 MPH (9 knots; 4.6 m/s)
Visibility: 1.93 miles (3.11 km)
Ceiling: 4000 feet AGL
Clouds: few clouds at 800 feet AGL
scattered clouds at 1500 feet AGL
broken clouds at 4000 feet AGL
Weather: -SHSN  (light snow showers)

METAR text: RJCW 220625Z 31009KT 4900 R08/1400VP2000N -SHSN FEW010 SCT015 BKN040 M05/M07 Q1006 RMK 1ST010 3ST015 6CU040 A2972
Conditions at: RJCW (WAKKANAI AIRPORT, JP) observed 0625 UTC 22 January 2019
Temperature: -5.0°C (23°F)
Dewpoint: -7.0°C (19°F) [RH = 86%]
Pressure (altimeter): 29.70 inches Hg (1006.0 mb)
Winds: from the NW (310 degrees) at 10 MPH (9 knots; 4.6 m/s)
Visibility: 3 miles ( 5 km)
Ceiling: 4000 feet AGL
Clouds: few clouds at 1000 feet AGL
scattered clouds at 1500 feet AGL
broken clouds at 4000 feet AGL
Weather: -SHSN  (light snow showers)

METAR text: RJCW 220600Z 31010KT 8000 -SHSN FEW006 SCT015 BKN040 M05/M08 Q1006
Conditions at: RJCW (WAKKANAI AIRPORT, JP) observed 0600 UTC 22 January 2019
Temperature: -5.0°C (23°F)
Dewpoint: -8.0°C (18°F) [RH = 79%]
Pressure (altimeter): 29.70 inches Hg (1006.0 mb)
Winds: from the NW (310 degrees) at 12 MPH (10 knots; 5.1 m/s)
Visibility: 5 miles ( 8 km)
Ceiling: 4000 feet AGL
Clouds: few clouds at 600 feet AGL
scattered clouds at 1500 feet AGL
broken clouds at 4000 feet AGL
Weather: -SHSN  (light snow showers)

METAR text: RJCW 220541Z 32011KT 5000 R08/0700VP2000U -SHSN FEW005 SCT010 BKN020 M05/M07 Q1006 RMK 1ST005 3ST010 5CU020 A2971 9999W
Conditions at: RJCW (WAKKANAI AIRPORT, JP) observed 0541 UTC 22 January 2019
Temperature: -5.0°C (23°F)
Dewpoint: -7.0°C (19°F) [RH = 86%]
Pressure (altimeter): 29.70 inches Hg (1006.0 mb)
Winds: from the NW (320 degrees) at 13 MPH (11 knots; 5.7 m/s)
Visibility: 3 miles ( 5 km)
Ceiling: 2000 feet AGL
Clouds: few clouds at 500 feet AGL
scattered clouds at 1000 feet AGL
broken clouds at 2000 feet AGL
Weather: -SHSN  (light snow showers)

METAR text: RJCW 220538Z 32010KT 1600 R08/0400VP2000U -SHSN FEW005 SCT010 BKN020 M05/M07 Q1006 RMK 1ST005 4ST010 6CU020 A2971 9999W
Conditions at: RJCW (WAKKANAI AIRPORT, JP) observed 0538 UTC 22 January 2019
Temperature: -5.0°C (23°F)
Dewpoint: -7.0°C (19°F) [RH = 86%]
Pressure (altimeter): 29.70 inches Hg (1006.0 mb)
Winds: from the NW (320 degrees) at 12 MPH (10 knots; 5.1 m/s)
Visibility: 0.99 miles (1.59 km)
Ceiling: 2000 feet AGL
Clouds: few clouds at 500 feet AGL
scattered clouds at 1000 feet AGL
broken clouds at 2000 feet AGL
Weather: -SHSN  (light snow showers)

METAR text: RJCW 220534Z 28009KT 260V320 1000 R08/0400VP2000N -SHSN FEW005 SCT007 BKN010 M05/M07 Q1006 RMK 1ST005 3ST007 5ST010 A2971
Conditions at: RJCW (WAKKANAI AIRPORT, JP) observed 0534 UTC 22 January 2019
Temperature: -5.0°C (23°F)
Dewpoint: -7.0°C (19°F) [RH = 86%]
Pressure (altimeter): 29.70 inches Hg (1006.0 mb)
Winds: from the W (280 degrees) at 10 MPH (9 knots; 4.6 m/s)
Visibility: 0.62 miles (1.00 km)
Ceiling: 1000 feet AGL
Clouds: few clouds at 500 feet AGL
scattered clouds at 700 feet AGL
broken clouds at 1000 feet AGL
Weather: -SHSN  (light snow showers)

METAR text: RJCW 220500Z 33008KT 0600 R08/0550VP2000D SHSN FEW005 SCT006 BKN010 M05/M07 Q1005
Conditions at: RJCW (WAKKANAI AIRPORT, JP) observed 0500 UTC 22 January 2019
Temperature: -5.0°C (23°F)
Dewpoint: -7.0°C (19°F) [RH = 86%]
Pressure (altimeter): 29.68 inches Hg (1005.0 mb)
Winds: from the NNW (330 degrees) at 9 MPH (8 knots; 4.1 m/s)
Visibility: 0.37 miles (0.60 km)
Ceiling: 1000 feet AGL
Clouds: few clouds at 500 feet AGL
scattered clouds at 600 feet AGL
broken clouds at 1000 feet AGL
Weather: SHSN  (snow showers)

METAR text: RJCW 220440Z 32012KT 3100 -SHSN FEW008 SCT015 BKN020 M05/M08 Q1005 RMK 1ST008 3ST015 5CU020 A2969
Conditions at: RJCW (WAKKANAI AIRPORT, JP) observed 0440 UTC 22 January 2019
Temperature: -5.0°C (23°F)
Dewpoint: -8.0°C (18°F) [RH = 79%]
Pressure (altimeter): 29.68 inches Hg (1005.0 mb)
Winds: from the NW (320 degrees) at 14 MPH (12 knots; 6.2 m/s)
Visibility: 1.93 miles (3.11 km)
Ceiling: 2000 feet AGL
Clouds: few clouds at 800 feet AGL
scattered clouds at 1500 feet AGL
broken clouds at 2000 feet AGL
Weather: -SHSN  (light snow showers)

METAR text: RJCW 220435Z 32012KT 4900 -SHSN FEW008 SCT015 BKN020 M05/M08 Q1005 RMK 1ST008 3ST015 5CU020 A2969
Conditions at: RJCW (WAKKANAI AIRPORT, JP) observed 0435 UTC 22 January 2019
Temperature: -5.0°C (23°F)
Dewpoint: -8.0°C (18°F) [RH = 79%]
Pressure (altimeter): 29.68 inches Hg (1005.0 mb)
Winds: from the NW (320 degrees) at 14 MPH (12 knots; 6.2 m/s)
Visibility: 3 miles ( 5 km)
Ceiling: 2000 feet AGL
Clouds: few clouds at 800 feet AGL
scattered clouds at 1500 feet AGL
broken clouds at 2000 feet AGL
Weather: -SHSN  (light snow showers)

METAR text: RJCW 220400Z 31010KT 9999 -SHSN FEW015 SCT030 BKN050 M04/M08 Q1005
Conditions at: RJCW (WAKKANAI AIRPORT, JP) observed 0400 UTC 22 January 2019
Temperature: -4.0°C (25°F)
Dewpoint: -8.0°C (18°F) [RH = 74%]
Pressure (altimeter): 29.68 inches Hg (1005.0 mb)
Winds: from the NW (310 degrees) at 12 MPH (10 knots; 5.1 m/s)
Visibility: 6 or more miles (10+ km)
Ceiling: 5000 feet AGL
Clouds: few clouds at 1500 feet AGL
scattered clouds at 3000 feet AGL
broken clouds at 5000 feet AGL
Weather: -SHSN  (light snow showers)